Terminal Aerodrome Forecast
Issued by NWS

Home | Current Version | Previous Version | Text Only | Print | Product List | Glossary On
Versions: 1 2 3 4 5 6 7 8 9 10 11 12 13
707
FTUS46 KHNX 240524
TAFVIS
TAF
KVIS 240524Z 2406/2506 VRB06KT P6SM BKN100
     FM242300 32009KT P6SM SCT050 BKN100 PROB30 2500/2506 -SHRA
      BKN050=

USA.gov is the U.S. government's official web portal to all federal, state and local government web resources and services.